Terminal Aerodrome Forecast
Issued by NWS Wakefield, VA

Home | Current Version | Previous Version | Text Only | Print | Product List | Glossary On
Versions: 1 2 3 4 5 6 7 8 9 10 11 12 13 14 15 16
000
FTUS41 KAKQ 030300 AAB
TAFRIC
TAF AMD
KRIC 030322Z 0303/0324 22009KT P6SM SCT050 BKN150
      TEMPO 0303/0305 VRB10G20KT 3SM TSRA BR BKN050CB
     FM030500 27003KT P6SM SCT050 BKN080
     FM031200 36005KT P6SM BKN100
     FM032000 07003KT P6SM SCT250=

USA.gov is the U.S. government's official web portal to all federal, state and local government web resources and services.